Time;durP1;ratioP1;P1;durP2;ratioP2;P2;SDS_P1;SDS_P2;PMS_P1;PMS_P2;Temp;Humidity;BMP_temperature;BMP_pressure;BME280_temperature;BME280_humidity;BME280_pressure;Samples;Min_cycle;Max_cycle;Signal;HPM_P1;HPM_P2
2022/01/17 00:02:43;;;;;;;17.47;10.57;;;3.70;99.90;;;;;;5018629;28;20375;-79
2022/01/17 00:05:28;;;;;;;18.07;12.10;;;3.80;99.90;;;;;;5019739;28;20464;-80
2022/01/17 00:08:13;;;;;;;19.47;11.73;;;3.70;99.90;;;;;;5015868;28;20451;-79
2022/01/17 00:10:57;;;;;;;23.30;12.83;;;3.70;99.90;;;;;;5014383;28;20365;-80
2022/01/17 00:13:44;;;;;;;20.40;12.10;;;3.70;99.90;;;;;;5014666;28;20380;-80
2022/01/17 00:16:39;;;;;;;21.30;14.60;;;3.70;99.90;;;;;;5014439;28;20409;-80
2022/01/17 00:19:38;;;;;;;21.13;12.20;;;3.70;99.90;;;;;;5014961;28;20367;-80
2022/01/17 00:22:23;;;;;;;18.93;11.27;;;3.80;99.90;;;;;;5014709;28;20431;-80
2022/01/17 00:25:08;;;;;;;24.87;12.07;;;3.80;99.90;;;;;;5014435;28;20571;-80
2022/01/17 00:27:52;;;;;;;21.13;12.13;;;3.70;99.90;;;;;;5015332;28;20363;-80
2022/01/17 00:30:37;;;;;;;21.90;13.03;;;3.70;99.90;;;;;;5014935;28;20396;-80
2022/01/17 00:33:22;;;;;;;21.13;10.77;;;3.60;99.90;;;;;;5014414;28;20788;-79
2022/01/17 00:36:07;;;;;;;21.70;12.60;;;3.60;99.90;;;;;;5015150;28;20408;-80
2022/01/17 00:38:52;;;;;;;14.70;9.40;;;3.70;99.90;;;;;;5013641;28;20400;-80
2022/01/17 00:41:36;;;;;;;15.90;12.00;;;3.70;99.90;;;;;;5014291;28;20443;-79
2022/01/17 00:44:21;;;;;;;24.33;13.80;;;3.70;99.90;;;;;;5014610;28;20442;-79
2022/01/17 00:47:06;;;;;;;20.70;13.37;;;3.70;99.90;;;;;;5014906;28;20385;-80
2022/01/17 00:49:50;;;;;;;25.30;11.77;;;3.70;99.90;;;;;;5014297;28;20714;-80
2022/01/17 00:52:36;;;;;;;23.63;11.73;;;3.80;99.90;;;;;;5014394;28;20402;-80
2022/01/17 00:55:21;;;;;;;20.20;12.80;;;3.70;99.90;;;;;;5013972;28;20375;-80
2022/01/17 00:58:06;;;;;;;25.67;12.57;;;3.50;99.90;;;;;;5013334;28;20539;-80
2022/01/17 01:00:51;;;;;;;21.87;13.83;;;3.70;99.90;;;;;;5014136;28;20472;-80
2022/01/17 01:03:36;;;;;;;21.37;12.83;;;3.70;99.90;;;;;;5014674;28;20371;-80
2022/01/17 01:06:21;;;;;;;21.60;12.33;;;3.80;99.90;;;;;;5013397;28;20418;-80
2022/01/17 01:09:06;;;;;;;26.10;16.03;;;3.80;99.90;;;;;;5015248;28;20359;-80
2022/01/17 01:11:50;;;;;;;21.03;12.80;;;3.80;99.90;;;;;;5013228;28;20372;-80
2022/01/17 01:14:35;;;;;;;20.47;11.90;;;3.90;99.90;;;;;;4999291;28;20371;-80
2022/01/17 01:17:32;;;;;;;21.30;11.67;;;3.90;99.90;;;;;;5013428;28;20392;-80
2022/01/17 01:20:41;;;;;;;14.93;11.10;;;3.80;99.90;;;;;;5014915;28;20413;-80
2022/01/17 01:29:27;;;;;;;16.73;10.97;;;3.70;99.90;;;;;;5013340;28;20371;-80
2022/01/17 01:32:13;;;;;;;21.30;11.30;;;3.70;99.90;;;;;;5013449;28;21031;-79
2022/01/17 01:35:00;;;;;;;15.50;11.23;;;3.70;99.90;;;;;;5013237;28;20423;-80
2022/01/17 01:37:45;;;;;;;20.33;13.30;;;3.80;99.90;;;;;;5013572;28;20368;-80
2022/01/17 01:40:30;;;;;;;25.90;12.90;;;3.80;99.90;;;;;;5012591;28;20379;-80
2022/01/17 01:43:15;;;;;;;19.70;12.03;;;3.90;99.90;;;;;;5013586;28;20412;-80
2022/01/17 01:46:02;;;;;;;15.00;9.97;;;3.90;99.90;;;;;;5013463;28;20447;-79
2022/01/17 01:48:47;;;;;;;21.30;11.97;;;3.80;99.90;;;;;;5012788;28;20362;-79
2022/01/17 01:51:32;;;;;;;19.93;10.43;;;3.90;99.90;;;;;;5011459;28;20362;-80
2022/01/17 01:54:18;;;;;;;23.30;11.80;;;4.00;99.90;;;;;;5013211;28;20379;-80
2022/01/17 01:57:02;;;;;;;19.10;11.23;;;4.00;99.90;;;;;;5012490;28;20492;-80
2022/01/17 01:59:47;;;;;;;16.23;10.27;;;4.10;99.90;;;;;;5013492;28;20367;-80
2022/01/17 02:02:31;;;;;;;17.77;11.10;;;4.00;99.90;;;;;;5012704;28;20533;-80
2022/01/17 02:05:16;;;;;;;21.93;10.90;;;4.10;99.90;;;;;;5011168;28;20438;-80
2022/01/17 02:08:01;;;;;;;16.57;11.03;;;4.10;99.90;;;;;;5012576;28;20864;-80
2022/01/17 02:10:45;;;;;;;18.80;11.77;;;4.10;99.90;;;;;;5013348;28;20392;-80
2022/01/17 02:13:31;;;;;;;20.07;11.77;;;4.00;99.90;;;;;;5012351;28;20359;-79
2022/01/17 02:16:16;;;;;;;17.30;10.50;;;4.10;99.90;;;;;;5013141;28;20367;-80
2022/01/17 02:19:00;;;;;;;21.60;11.20;;;3.90;99.90;;;;;;5012090;28;20363;-80
2022/01/17 02:21:47;;;;;;;14.60;9.27;;;4.00;99.90;;;;;;5013463;28;20399;-80
2022/01/17 02:24:32;;;;;;;21.73;10.13;;;3.90;99.90;;;;;;5012313;28;20466;-80
2022/01/17 02:27:17;;;;;;;20.10;11.00;;;3.90;99.90;;;;;;5012917;28;20865;-80
2022/01/17 02:30:02;;;;;;;15.40;9.67;;;4.00;99.90;;;;;;5012955;28;20371;-80
2022/01/17 02:32:47;;;;;;;16.67;11.20;;;3.90;99.90;;;;;;5012590;28;20452;-80
2022/01/17 02:35:32;;;;;;;15.97;12.17;;;3.80;99.90;;;;;;5013013;28;20392;-80
2022/01/17 02:38:17;;;;;;;17.43;10.63;;;3.80;99.90;;;;;;5012906;28;20399;-80
2022/01/17 02:41:01;;;;;;;15.20;9.57;;;3.90;99.90;;;;;;5013035;28;20401;-80
2022/01/17 02:43:47;;;;;;;18.60;10.00;;;3.90;99.90;;;;;;5012560;28;20407;-80
2022/01/17 02:46:32;;;;;;;16.73;11.40;;;4.00;99.90;;;;;;5013321;28;20387;-80
2022/01/17 02:49:16;;;;;;;14.73;8.80;;;4.00;99.90;;;;;;5013105;28;20359;-79
2022/01/17 02:52:01;;;;;;;16.87;10.03;;;4.00;99.90;;;;;;5011870;28;20848;-80
2022/01/17 02:54:46;;;;;;;14.00;11.03;;;3.90;99.90;;;;;;5014518;28;20372;-80
2022/01/17 02:57:32;;;;;;;18.50;10.30;;;3.90;99.90;;;;;;5017951;28;20492;-80
2022/01/17 03:00:17;;;;;;;17.30;11.07;;;3.90;99.90;;;;;;5016857;28;20375;-79
2022/01/17 03:03:01;;;;;;;16.17;9.00;;;4.00;99.90;;;;;;5017028;28;20428;-80
2022/01/17 03:05:48;;;;;;;17.20;9.57;;;3.90;99.90;;;;;;5014102;28;20456;-80
2022/01/17 03:08:34;;;;;;;16.70;9.77;;;3.90;99.90;;;;;;5018176;28;20416;-79
2022/01/17 03:11:24;;;;;;;17.17;9.93;;;4.00;99.90;;;;;;5017800;28;20396;-78
2022/01/17 03:14:08;;;;;;;13.63;9.37;;;4.00;99.90;;;;;;5017536;28;20395;-78
2022/01/17 03:16:55;;;;;;;13.93;8.83;;;4.00;99.90;;;;;;5012829;28;20367;-80
2022/01/17 03:19:39;;;;;;;14.33;9.97;;;4.00;99.90;;;;;;5012641;28;20400;-80
2022/01/17 03:22:24;;;;;;;13.67;10.20;;;4.00;99.90;;;;;;5011818;28;20399;-80
2022/01/17 03:25:09;;;;;;;12.60;8.50;;;4.00;99.90;;;;;;5012339;28;20434;-80
2022/01/17 03:27:54;;;;;;;14.83;10.43;;;4.00;99.90;;;;;;5012338;28;20352;-80
2022/01/17 03:30:39;;;;;;;14.73;9.50;;;3.90;99.90;;;;;;5012729;28;20417;-80
2022/01/17 03:33:24;;;;;;;12.67;8.50;;;3.80;99.90;;;;;;5012198;28;20917;-80
2022/01/17 03:36:08;;;;;;;14.30;10.13;;;3.90;99.90;;;;;;5014789;28;20454;-80
2022/01/17 03:38:54;;;;;;;16.87;9.53;;;3.90;99.90;;;;;;5015962;28;20428;-80
2022/01/17 03:41:40;;;;;;;15.13;10.77;;;3.80;99.90;;;;;;5014554;28;20395;-80
2022/01/17 03:44:24;;;;;;;18.47;11.17;;;3.90;99.90;;;;;;5015155;28;20426;-79
2022/01/17 03:47:09;;;;;;;18.67;10.77;;;3.90;99.90;;;;;;5016175;28;20391;-80
2022/01/17 03:49:54;;;;;;;16.73;8.87;;;4.00;99.90;;;;;;5015953;28;20384;-80
2022/01/17 03:52:40;;;;;;;17.63;11.37;;;4.10;99.90;;;;;;5015456;28;20487;-80
2022/01/17 03:55:27;;;;;;;16.10;9.70;;;4.10;99.90;;;;;;5015033;28;20379;-79
2022/01/17 03:58:11;;;;;;;13.87;9.37;;;4.10;99.90;;;;;;5014871;28;20430;-79
2022/01/17 04:00:58;;;;;;;15.30;9.47;;;4.00;99.90;;;;;;5015159;28;20401;-80
2022/01/17 04:03:43;;;;;;;12.00;9.27;;;4.10;99.90;;;;;;5015716;28;20363;-80
2022/01/17 04:06:27;;;;;;;15.40;9.67;;;4.10;99.90;;;;;;5014139;28;20732;-80
2022/01/17 04:09:12;;;;;;;13.07;10.40;;;4.10;99.90;;;;;;5014894;28;20389;-80
2022/01/17 04:11:56;;;;;;;15.60;9.83;;;4.10;99.90;;;;;;5015194;28;20363;-80
2022/01/17 04:14:41;;;;;;;10.77;7.83;;;4.10;99.90;;;;;;5014863;28;20371;-80
2022/01/17 04:17:29;;;;;;;15.77;8.53;;;4.00;99.90;;;;;;5014962;28;20351;-79
2022/01/17 04:20:23;;;;;;;18.43;10.10;;;4.00;99.90;;;;;;5016419;28;20384;-80
2022/01/17 04:23:11;;;;;;;16.67;9.73;;;3.90;99.90;;;;;;5017023;28;20414;-80
2022/01/17 04:25:56;;;;;;;12.23;8.10;;;4.10;99.90;;;;;;5016844;28;20418;-79
2022/01/17 04:28:41;;;;;;;16.37;8.90;;;4.10;99.90;;;;;;5016155;28;20359;-80
2022/01/17 04:31:26;;;;;;;10.13;8.43;;;4.10;99.90;;;;;;5014350;28;20387;-80
2022/01/17 04:34:11;;;;;;;12.30;8.30;;;4.10;99.90;;;;;;5014593;28;20377;-79
2022/01/17 04:36:55;;;;;;;16.23;8.90;;;4.20;99.90;;;;;;5014373;28;20485;-80
2022/01/17 04:39:40;;;;;;;11.13;9.30;;;4.30;99.90;;;;;;5014589;28;20412;-80
2022/01/17 04:42:28;;;;;;;9.03;7.27;;;4.20;99.90;;;;;;5013987;28;20412;-80
2022/01/17 04:45:16;;;;;;;12.77;8.77;;;4.30;99.90;;;;;;5013162;28;20468;-79
2022/01/17 04:48:01;;;;;;;11.10;8.77;;;4.40;99.90;;;;;;5012891;28;20413;-80
2022/01/17 04:50:46;;;;;;;9.10;7.63;;;4.40;99.90;;;;;;5014783;28;20436;-80
2022/01/17 04:53:32;;;;;;;10.40;7.70;;;4.40;99.90;;;;;;4999714;28;20371;-80
2022/01/17 04:56:16;;;;;;;12.20;6.07;;;4.40;99.90;;;;;;5014538;28;20395;-80
2022/01/17 04:59:01;;;;;;;12.73;8.00;;;4.40;99.90;;;;;;5014023;28;20469;-80
2022/01/17 05:01:45;;;;;;;12.13;7.23;;;4.50;99.90;;;;;;5014437;28;20370;-80
2022/01/17 05:04:30;;;;;;;9.17;7.90;;;4.40;99.90;;;;;;5014263;28;20422;-80
2022/01/17 05:07:15;;;;;;;9.90;8.53;;;4.40;99.90;;;;;;5013629;28;20465;-80
2022/01/17 05:09:59;;;;;;;9.17;6.00;;;4.30;99.90;;;;;;5013919;28;20436;-80
2022/01/17 05:12:44;;;;;;;11.90;7.50;;;4.30;99.90;;;;;;5012838;28;20363;-80
2022/01/17 05:15:35;;;;;;;9.50;7.23;;;4.30;99.90;;;;;;5014281;28;20367;-80
2022/01/17 05:21:15;;;;;;;9.23;7.17;;;4.30;99.90;;;;;;5012678;28;20383;-80
2022/01/17 05:24:00;;;;;;;12.77;8.20;;;4.40;99.90;;;;;;5012519;28;20359;-80
2022/01/17 05:26:45;;;;;;;13.00;8.30;;;4.40;99.90;;;;;;5013057;28;20391;-79
2022/01/17 05:29:29;;;;;;;12.63;6.47;;;4.30;99.90;;;;;;5012246;28;20373;-79
2022/01/17 05:32:14;;;;;;;13.80;7.67;;;4.30;99.90;;;;;;5012799;28;20386;-80
2022/01/17 05:34:59;;;;;;;10.03;6.17;;;4.20;99.90;;;;;;5012855;28;20388;-80
2022/01/17 05:37:45;;;;;;;12.13;7.07;;;4.20;99.90;;;;;;5012708;28;20368;-79
2022/01/17 05:40:30;;;;;;;8.90;6.50;;;4.20;99.90;;;;;;5011421;28;20445;-79
2022/01/17 05:43:14;;;;;;;10.13;6.80;;;4.20;99.90;;;;;;5012802;28;20489;-80
2022/01/17 05:45:59;;;;;;;13.30;8.10;;;4.30;99.90;;;;;;5011311;28;20399;-80
2022/01/17 05:48:44;;;;;;;11.00;8.73;;;4.30;99.90;;;;;;5000817;28;20385;-80
2022/01/17 05:51:28;;;;;;;9.00;7.10;;;4.10;99.90;;;;;;5017682;28;20405;-80
2022/01/17 05:54:13;;;;;;;8.60;7.40;;;4.10;99.90;;;;;;5011941;28;20384;-80
2022/01/17 05:56:58;;;;;;;13.70;8.03;;;4.20;99.90;;;;;;5012897;28;20494;-80
2022/01/17 05:59:43;;;;;;;13.90;8.43;;;4.30;99.90;;;;;;5011602;28;20371;-80
2022/01/17 06:02:28;;;;;;;9.40;7.43;;;4.20;99.90;;;;;;5012464;28;20380;-80
2022/01/17 06:05:13;;;;;;;16.97;8.53;;;4.30;99.90;;;;;;5011347;28;20590;-79
2022/01/17 06:07:57;;;;;;;19.63;8.50;;;4.30;99.90;;;;;;5012211;28;20454;-79
2022/01/17 06:10:42;;;;;;;14.00;7.63;;;4.30;99.90;;;;;;5013052;28;20401;-81
2022/01/17 06:13:27;;;;;;;10.93;7.60;;;4.30;99.90;;;;;;5004346;28;20416;-80
2022/01/17 06:16:11;;;;;;;11.90;7.47;;;4.30;99.90;;;;;;5011468;28;20428;-80
2022/01/17 06:18:57;;;;;;;15.10;10.60;;;4.20;99.90;;;;;;5011518;28;20480;-80
2022/01/17 06:21:41;;;;;;;14.07;10.27;;;4.20;99.90;;;;;;5013104;28;20426;-80
2022/01/17 06:24:26;;;;;;;12.93;7.43;;;4.20;99.90;;;;;;5011358;28;20917;-80
2022/01/17 06:27:10;;;;;;;9.60;7.97;;;4.10;99.90;;;;;;5001912;28;20401;-79
2022/01/17 06:29:59;;;;;;;10.77;6.63;;;4.20;99.90;;;;;;5007794;28;20465;-80
2022/01/17 06:32:44;;;;;;;13.90;8.67;;;4.20;99.90;;;;;;5007660;28;20413;-80
2022/01/17 06:35:29;;;;;;;12.93;9.80;;;4.10;99.90;;;;;;4994780;28;20418;-81
2022/01/17 06:38:14;;;;;;;15.20;10.63;;;4.20;99.90;;;;;;4995358;28;20543;-80
2022/01/17 06:40:58;;;;;;;12.07;7.10;;;4.30;99.90;;;;;;5009723;28;20420;-80
2022/01/17 06:43:44;;;;;;;14.33;8.90;;;4.40;99.90;;;;;;5003426;28;20452;-80
2022/01/17 06:46:29;;;;;;;17.20;10.03;;;4.40;99.90;;;;;;4997076;28;20452;-80
2022/01/17 06:49:13;;;;;;;16.40;10.17;;;4.30;99.90;;;;;;4988651;28;20391;-80
2022/01/17 06:52:00;;;;;;;11.90;8.57;;;4.00;99.90;;;;;;4996427;28;20400;-81
2022/01/17 06:54:44;;;;;;;13.23;9.77;;;4.10;99.90;;;;;;4999675;28;20390;-80
2022/01/17 06:57:28;;;;;;;14.53;10.27;;;4.20;99.90;;;;;;5005464;28;20464;-80
2022/01/17 07:00:14;;;;;;;22.20;9.93;;;4.10;99.90;;;;;;5006770;28;20443;-80
2022/01/17 07:02:58;;;;;;;10.37;7.27;;;3.80;99.90;;;;;;5004074;28;20432;-80
2022/01/17 07:05:43;;;;;;;12.77;8.43;;;4.00;99.90;;;;;;5003230;28;20458;-79
2022/01/17 07:08:28;;;;;;;13.83;9.50;;;4.00;99.90;;;;;;5005803;28;20403;-80
2022/01/17 07:11:13;;;;;;;20.27;7.97;;;4.10;99.90;;;;;;5015326;28;20390;-80
2022/01/17 07:13:58;;;;;;;12.20;7.60;;;3.90;99.90;;;;;;5007454;28;20413;-79
2022/01/17 07:16:43;;;;;;;15.67;10.27;;;3.90;99.90;;;;;;5005464;28;20407;-80
2022/01/17 07:19:28;;;;;;;13.50;7.60;;;4.10;99.90;;;;;;5001608;28;20499;-80
2022/01/17 07:22:12;;;;;;;10.90;9.43;;;4.10;99.90;;;;;;5008390;28;20429;-79
2022/01/17 07:24:57;;;;;;;10.70;8.70;;;4.20;99.90;;;;;;5009784;28;20430;-80
2022/01/17 07:27:42;;;;;;;14.33;8.93;;;4.20;99.90;;;;;;5009500;28;20386;-79
2022/01/17 07:30:28;;;;;;;17.50;9.70;;;3.90;99.90;;;;;;5005569;28;20424;-79
2022/01/17 07:33:13;;;;;;;22.77;9.03;;;4.00;99.90;;;;;;4993025;28;20462;-80
2022/01/17 07:35:58;;;;;;;15.97;9.50;;;4.10;99.90;;;;;;5010302;28;21012;-79
2022/01/17 07:38:42;;;;;;;21.50;9.20;;;4.20;99.90;;;;;;4998365;28;20460;-80
2022/01/17 07:41:27;;;;;;;13.87;8.90;;;4.30;99.90;;;;;;4996865;28;20496;-79
2022/01/17 07:44:19;;;;;;;18.73;9.97;;;4.40;99.90;;;;;;5010097;28;20424;-79
2022/01/17 07:47:05;;;;;;;16.33;9.37;;;4.40;99.90;;;;;;5010809;28;20415;-79
2022/01/17 07:49:50;;;;;;;12.93;9.30;;;4.30;99.90;;;;;;5009241;28;20436;-79
2022/01/17 07:52:36;;;;;;;14.23;10.50;;;4.40;99.90;;;;;;4993137;28;20459;-80
2022/01/17 07:55:21;;;;;;;9.27;7.53;;;4.50;99.90;;;;;;4978505;28;20250;-80
2022/01/17 07:58:06;;;;;;;17.60;9.77;;;4.30;99.90;;;;;;5009606;28;21002;-81
2022/01/17 08:00:50;;;;;;;18.40;9.57;;;4.50;99.90;;;;;;5003066;28;20418;-79
2022/01/17 08:03:35;;;;;;;14.70;8.70;;;4.50;99.90;;;;;;5006238;28;20529;-79
2022/01/17 08:06:20;;;;;;;14.37;7.70;;;4.30;99.90;;;;;;5009701;28;20485;-80
2022/01/17 08:09:11;;;;;;;9.40;7.87;;;4.40;99.90;;;;;;5010216;28;20419;-79
2022/01/17 08:11:58;;;;;;;14.60;9.47;;;4.40;99.90;;;;;;5008667;28;20428;-80
2022/01/17 08:14:42;;;;;;;13.30;8.97;;;4.40;99.90;;;;;;5023015;28;20437;-79
2022/01/17 08:17:27;;;;;;;11.10;6.97;;;4.40;99.90;;;;;;5006744;28;20411;-80
2022/01/17 08:20:12;;;;;;;11.40;7.20;;;4.50;99.90;;;;;;5009680;28;20428;-80
2022/01/17 08:22:57;;;;;;;13.70;8.20;;;4.40;99.90;;;;;;5004073;28;20585;-80
2022/01/17 08:25:42;;;;;;;13.20;8.90;;;4.40;99.90;;;;;;5007928;28;20467;-80
2022/01/17 08:28:27;;;;;;;11.43;7.57;;;4.40;99.90;;;;;;5013927;28;20411;-80
2022/01/17 08:31:11;;;;;;;11.83;8.73;;;4.40;99.90;;;;;;5007876;28;20424;-79
2022/01/17 08:33:56;;;;;;;11.73;7.90;;;4.50;99.90;;;;;;5004423;28;20460;-80
2022/01/17 08:36:41;;;;;;;9.50;8.00;;;4.50;99.90;;;;;;5008964;28;20438;-80
2022/01/17 08:39:25;;;;;;;10.50;7.77;;;4.40;99.90;;;;;;5007980;28;20484;-80
2022/01/17 08:42:12;;;;;;;11.77;10.07;;;4.40;99.90;;;;;;5015727;28;20443;-80
2022/01/17 08:44:57;;;;;;;12.87;8.67;;;4.50;99.90;;;;;;5008539;28;20466;-80
2022/01/17 08:47:46;;;;;;;10.93;6.90;;;4.50;99.90;;;;;;5002135;28;20386;-80
2022/01/17 08:50:31;;;;;;;11.27;7.67;;;4.50;99.90;;;;;;5002531;28;20432;-80
2022/01/17 08:53:16;;;;;;;10.90;6.57;;;4.60;99.90;;;;;;5006070;28;20414;-80
2022/01/17 08:56:01;;;;;;;12.30;7.20;;;4.60;99.90;;;;;;5002573;28;20467;-81
2022/01/17 08:58:45;;;;;;;12.73;7.43;;;4.60;99.90;;;;;;5005063;28;20496;-80
2022/01/17 09:01:30;;;;;;;12.33;6.73;;;4.40;99.90;;;;;;4988665;28;20404;-81
2022/01/17 09:04:14;;;;;;;16.40;8.30;;;4.60;99.90;;;;;;4997528;28;20392;-80
2022/01/17 09:06:59;;;;;;;12.57;7.53;;;4.60;99.90;;;;;;5008301;28;20879;-80
2022/01/17 09:09:45;;;;;;;14.17;8.60;;;4.60;99.90;;;;;;5009802;28;20517;-81
2022/01/17 09:12:30;;;;;;;15.90;9.30;;;4.50;99.90;;;;;;5007940;28;20427;-80
2022/01/17 09:15:15;;;;;;;15.23;8.77;;;4.60;99.90;;;;;;5009633;28;20394;-80
2022/01/17 09:18:00;;;;;;;18.50;8.10;;;4.70;99.90;;;;;;5006679;28;20456;-81
2022/01/17 09:20:45;;;;;;;12.83;7.87;;;4.60;99.90;;;;;;5001068;28;20402;-80
2022/01/17 09:23:30;;;;;;;15.07;10.50;;;4.60;99.90;;;;;;5007662;28;20745;-81
2022/01/17 09:26:15;;;;;;;14.27;7.67;;;4.70;99.90;;;;;;5008181;28;20434;-80
2022/01/17 09:28:59;;;;;;;12.80;9.17;;;4.70;99.90;;;;;;5008107;28;20483;-80
2022/01/17 09:31:44;;;;;;;12.83;8.03;;;4.70;99.90;;;;;;5010883;28;20403;-80
2022/01/17 09:34:29;;;;;;;14.67;7.20;;;4.70;99.90;;;;;;5014807;28;20400;-79
2022/01/17 09:37:14;;;;;;;12.60;8.10;;;4.70;99.90;;;;;;5011151;28;20418;-78
2022/01/17 09:40:00;;;;;;;19.60;9.87;;;4.80;99.90;;;;;;5007523;28;20536;-82
2022/01/17 09:42:45;;;;;;;13.47;7.27;;;4.80;99.90;;;;;;4989854;28;20387;-81
2022/01/17 09:45:30;;;;;;;16.53;8.73;;;4.80;99.90;;;;;;5000629;28;20984;-81
2022/01/17 09:48:20;;;;;;;11.13;6.77;;;4.70;99.90;;;;;;5003966;28;20446;-81
2022/01/17 09:51:18;;;;;;;12.30;7.20;;;4.70;99.90;;;;;;5011058;28;20400;-81
2022/01/17 09:54:12;;;;;;;10.43;6.83;;;4.80;99.90;;;;;;5008451;28;20457;-80
2022/01/17 09:56:58;;;;;;;8.67;6.33;;;4.80;99.90;;;;;;4965404;28;20437;-80
2022/01/17 09:59:43;;;;;;;11.07;8.03;;;4.70;99.90;;;;;;4944715;29;20795;-80
2022/01/17 10:02:28;;;;;;;11.53;5.27;;;4.90;99.90;;;;;;4946807;29;20493;-81
2022/01/17 10:05:14;;;;;;;16.73;8.07;;;4.90;99.90;;;;;;4942552;29;20593;-81
2022/01/17 10:08:07;;;;;;;8.23;6.20;;;5.00;99.90;;;;;;4928768;29;20977;-81
2022/01/17 10:11:00;;;;;;;6.97;6.13;;;5.00;99.90;;;;;;4918834;29;20495;-80
2022/01/17 10:13:47;;;;;;;8.80;5.83;;;5.00;99.90;;;;;;4941045;29;20445;-80
2022/01/17 10:16:32;;;;;;;8.07;5.80;;;5.00;99.90;;;;;;4958281;28;20450;-79
2022/01/17 10:19:38;;;;;;;12.43;6.27;;;4.90;99.90;;;;;;4965290;28;20412;-81
2022/01/17 10:22:36;;;;;;;7.20;5.67;;;5.00;99.90;;;;;;4920723;29;20457;-79
2022/01/17 10:25:42;;;;;;;10.93;6.17;;;5.10;99.90;;;;;;4903143;29;20454;-80
2022/01/17 10:28:56;;;;;;;9.90;5.73;;;5.20;99.90;;;;;;4882404;29;20430;-80
2022/01/17 10:35:33;;;;;;;6.07;5.47;;;5.20;99.90;;;;;;4867713;29;20422;-80
2022/01/17 10:38:27;;;;;;;11.80;4.90;;;5.10;99.90;;;;;;4868203;29;20414;-80
2022/01/17 10:41:13;;;;;;;10.13;5.90;;;5.10;99.90;;;;;;4843102;29;20462;-79
2022/01/17 10:44:00;;;;;;;7.83;6.03;;;5.20;99.90;;;;;;4854186;29;20434;-80
2022/01/17 10:46:46;;;;;;;14.77;6.20;;;5.20;99.90;;;;;;4833321;29;20453;-79
2022/01/17 10:50:00;;;;;;;8.30;7.47;;;5.20;99.90;;;;;;4846120;29;20431;-80
2022/01/17 10:52:52;;;;;;;6.83;5.30;;;5.20;99.90;;;;;;4824150;29;20419;-80
2022/01/17 10:55:40;;;;;;;7.43;4.60;;;5.20;99.90;;;;;;4823789;29;20490;-80
2022/01/17 10:58:29;;;;;;;9.10;6.40;;;5.30;99.90;;;;;;4838970;29;20482;-80
2022/01/17 11:01:16;;;;;;;8.97;6.37;;;5.30;99.90;;;;;;4870643;29;20446;-80
2022/01/17 11:04:03;;;;;;;9.30;6.03;;;5.30;99.90;;;;;;4880686;29;20412;-81
2022/01/17 11:06:57;;;;;;;11.70;7.20;;;5.20;99.90;;;;;;4863342;29;20419;-79
2022/01/17 11:09:49;;;;;;;8.00;5.50;;;5.20;99.90;;;;;;4892299;29;20454;-81
2022/01/17 11:12:34;;;;;;;13.90;6.57;;;5.20;99.90;;;;;;4890088;29;20809;-80
2022/01/17 11:15:24;;;;;;;10.33;6.53;;;5.10;99.90;;;;;;4915529;29;20399;-81
2022/01/17 11:18:34;;;;;;;8.77;5.60;;;5.10;99.90;;;;;;4893715;29;20589;-81
2022/01/17 11:21:26;;;;;;;9.43;5.37;;;5.20;99.90;;;;;;4860392;29;20479;-80
2022/01/17 11:24:10;;;;;;;8.07;6.47;;;5.10;99.90;;;;;;4900586;29;20417;-80
2022/01/17 11:27:15;;;;;;;7.50;5.67;;;5.30;99.90;;;;;;4939596;29;20481;-81
2022/01/17 11:30:01;;;;;;;8.93;6.23;;;5.20;99.90;;;;;;4930730;29;20401;-79
2022/01/17 11:32:51;;;;;;;13.47;6.13;;;5.20;99.90;;;;;;4899059;29;20449;-81
2022/01/17 11:35:42;;;;;;;7.70;5.40;;;5.20;99.90;;;;;;4896021;29;20476;-81
2022/01/17 11:38:34;;;;;;;7.03;5.30;;;5.40;99.90;;;;;;4884391;29;20407;-80
2022/01/17 11:41:27;;;;;;;7.00;5.10;;;5.40;99.90;;;;;;4908197;29;20493;-78
2022/01/17 11:44:11;;;;;;;7.33;6.33;;;5.40;99.90;;;;;;4892728;29;20466;-80
2022/01/17 11:47:00;;;;;;;10.60;5.47;;;5.40;99.90;;;;;;4903679;29;20493;-80
2022/01/17 11:49:44;;;;;;;7.10;5.10;;;5.50;99.90;;;;;;4903807;29;20516;-81
2022/01/17 11:52:31;;;;;;;4.10;3.13;;;5.40;99.90;;;;;;4927617;29;20420;-79
2022/01/17 11:55:42;;;;;;;5.70;5.10;;;5.40;99.90;;;;;;4898817;29;20429;-80
2022/01/17 11:58:38;;;;;;;7.87;5.70;;;5.30;99.90;;;;;;4937559;29;20496;-81
2022/01/17 12:01:24;;;;;;;8.33;6.00;;;5.50;99.90;;;;;;4884337;29;20599;-80
2022/01/17 12:04:10;;;;;;;10.30;7.00;;;5.50;99.90;;;;;;4864486;29;20441;-80
2022/01/17 12:07:19;;;;;;;9.67;6.03;;;5.60;99.90;;;;;;4877760;29;20468;-80
2022/01/17 12:10:14;;;;;;;10.33;5.80;;;5.60;99.90;;;;;;4854557;29;20972;-80
2022/01/17 12:13:35;;;;;;;8.87;5.27;;;5.60;99.90;;;;;;4835650;29;20437;-82
2022/01/17 12:16:41;;;;;;;6.97;4.80;;;5.60;99.90;;;;;;4835724;29;20448;-81
2022/01/17 12:19:27;;;;;;;8.70;5.90;;;5.50;99.90;;;;;;4859242;29;20401;-81
2022/01/17 12:22:17;;;;;;;15.33;5.97;;;5.40;99.90;;;;;;4871180;29;20433;-79
2022/01/17 12:25:31;;;;;;;7.07;4.53;;;5.50;99.90;;;;;;4847946;29;20552;-81
2022/01/17 12:28:23;;;;;;;14.20;6.23;;;5.50;99.90;;;;;;4851713;29;20452;-81
2022/01/17 12:31:09;;;;;;;11.43;4.60;;;5.60;99.90;;;;;;4856607;29;20760;-80
2022/01/17 12:34:24;;;;;;;8.37;5.50;;;5.50;99.90;;;;;;4880002;29;20420;-81
2022/01/17 12:37:30;;;;;;;7.70;5.43;;;5.60;99.90;;;;;;4873994;29;20496;-81
2022/01/17 12:40:19;;;;;;;7.20;5.57;;;5.50;99.90;;;;;;4917276;29;20454;-81
2022/01/17 12:43:29;;;;;;;10.00;4.80;;;5.50;99.90;;;;;;4937602;28;20434;-81
2022/01/17 12:46:15;;;;;;;7.60;4.63;;;5.30;99.90;;;;;;4960856;28;20831;-80
2022/01/17 12:49:02;;;;;;;7.67;6.20;;;5.40;99.90;;;;;;4934389;29;20540;-80
2022/01/17 12:51:49;;;;;;;7.27;6.53;;;5.40;99.90;;;;;;4925138;29;20427;-79
2022/01/17 12:54:35;;;;;;;6.90;5.90;;;5.50;99.90;;;;;;4896471;29;20465;-80
2022/01/17 12:57:28;;;;;;;8.93;6.20;;;5.50;99.90;;;;;;4901332;29;20495;-79
2022/01/17 13:00:20;;;;;;;10.13;5.67;;;5.50;99.90;;;;;;4910026;29;20398;-81
2022/01/17 13:03:09;;;;;;;10.57;5.83;;;5.40;99.90;;;;;;4909259;29;20428;-81
2022/01/17 13:06:02;;;;;;;9.13;5.73;;;5.50;99.90;;;;;;4903712;29;20448;-80
2022/01/17 13:08:49;;;;;;;10.30;6.13;;;5.50;99.90;;;;;;4906022;29;20403;-81
2022/01/17 13:11:40;;;;;;;11.50;9.27;;;5.50;99.90;;;;;;4925097;29;20412;-81
2022/01/17 13:14:25;;;;;;;6.37;5.27;;;5.50;99.90;;;;;;4923192;29;20229;-81
2022/01/17 13:17:10;;;;;;;7.27;5.43;;;5.50;99.90;;;;;;4911505;29;20515;-79
2022/01/17 13:20:08;;;;;;;4.80;4.30;;;5.60;99.90;;;;;;4893234;29;21013;-80
2022/01/17 13:23:02;;;;;;;5.57;4.20;;;5.60;99.90;;;;;;4901763;29;20746;-80
2022/01/17 13:25:56;;;;;;;9.83;5.13;;;5.50;99.90;;;;;;4901282;29;20463;-80
2022/01/17 13:29:06;;;;;;;8.50;5.63;;;5.50;99.90;;;;;;4912011;29;20407;-78
2022/01/17 13:31:52;;;;;;;6.20;5.20;;;5.50;99.90;;;;;;4883600;29;20456;-80
2022/01/17 13:35:02;;;;;;;6.47;4.47;;;5.40;99.90;;;;;;4843840;29;20957;-80
2022/01/17 13:37:46;;;;;;;7.63;5.07;;;5.40;99.90;;;;;;4805738;29;20437;-80
2022/01/17 13:40:38;;;;;;;5.00;4.53;;;5.50;99.90;;;;;;4816352;29;20554;-82
2022/01/17 13:43:25;;;;;;;6.03;4.77;;;5.50;99.90;;;;;;4839744;29;20895;-80
2022/01/17 13:46:30;;;;;;;13.53;6.33;;;5.30;99.90;;;;;;4835622;29;20454;-80
2022/01/17 13:49:16;;;;;;;7.30;4.97;;;5.40;99.90;;;;;;4819802;29;20422;-80
2022/01/17 13:52:08;;;;;;;4.23;3.60;;;5.50;99.90;;;;;;4837254;29;20562;-80
2022/01/17 13:54:54;;;;;;;8.40;4.63;;;5.50;99.90;;;;;;4799861;29;20505;-80
2022/01/17 13:57:45;;;;;;;10.30;4.97;;;5.50;99.90;;;;;;4872056;29;20454;-79
2022/01/17 14:00:33;;;;;;;9.17;6.30;;;5.50;99.90;;;;;;4837958;29;20519;-80
2022/01/17 14:03:24;;;;;;;8.60;4.50;;;5.50;99.90;;;;;;4853921;29;20963;-80
2022/01/17 14:06:11;;;;;;;6.93;5.00;;;5.60;99.90;;;;;;4866819;29;20515;-80
2022/01/17 14:09:28;;;;;;;10.03;4.70;;;5.60;99.90;;;;;;4870424;29;20515;-80
2022/01/17 14:12:12;;;;;;;8.70;5.90;;;5.60;99.90;;;;;;4834559;29;20451;-80
2022/01/17 14:14:59;;;;;;;5.23;4.47;;;5.60;99.90;;;;;;4849806;29;20439;-80
2022/01/17 14:17:45;;;;;;;4.70;3.77;;;5.50;99.90;;;;;;4854406;29;21079;-79
2022/01/17 14:20:29;;;;;;;5.20;3.80;;;5.50;99.90;;;;;;4859710;29;20445;-80
2022/01/17 14:23:36;;;;;;;5.00;3.90;;;5.60;99.90;;;;;;4871597;29;20472;-80
2022/01/17 14:26:26;;;;;;;7.97;4.37;;;5.50;99.90;;;;;;4875563;29;20428;-80
2022/01/17 14:29:15;;;;;;;7.20;4.70;;;5.60;99.90;;;;;;4915790;29;21011;-80
2022/01/17 14:31:59;;;;;;;4.60;3.50;;;5.60;99.90;;;;;;4899711;29;20423;-79
2022/01/17 14:34:47;;;;;;;6.90;4.53;;;5.50;99.90;;;;;;4916719;29;20513;-80
2022/01/17 14:37:32;;;;;;;10.87;6.50;;;5.40;99.90;;;;;;4923254;29;20422;-79
2022/01/17 14:40:19;;;;;;;7.27;5.60;;;5.50;99.90;;;;;;4926024;29;20436;-80
2022/01/17 14:43:14;;;;;;;10.97;6.17;;;5.50;99.90;;;;;;4932214;29;20528;-80
2022/01/17 14:46:04;;;;;;;7.30;5.10;;;5.50;99.90;;;;;;4871123;29;20447;-80
2022/01/17 14:48:55;;;;;;;8.00;4.63;;;5.50;99.90;;;;;;4874199;29;20465;-80